Cmb Sakura — 3EGO3 — position and weather

sailwx.info

Track history (hours):
 
Tides and Currents Weather Stations Pressure Air Temp Water Temp Dewpoint Dewpoint Depression Visibility Wind Speed Wind Dir Waves Ship Positions

Cmb Sakura

Last reported at 2016-Sep-23 16:30 UTC. Time now 2016-Sep-27 12:10 UTC.
Position N 35°21' E 119°32'.

Length 225 m; draft 8.1 m.

Type: Cargo ship. MMSI: 371784000.

Date/timePositionNaut miles runAvg speedWind from/ knotsBaromVisibWave heightAir tempDewpointWater temp
2016-Sep-23 16:30N 35°21' E 119°32'0 0.0
2016-Sep-23 15:18N 35°21' E 119°32'0 0.0
2016-Sep-23 13:24N 35°21' E 119°32'7 1.8
2016-Sep-23 09:33N 35°18' E 119°39'4 0.7
2016-Sep-23 04:32N 35°15' E 119°41'0 0.1
2016-Sep-23 03:32N 35°15' E 119°41'0 0.0
2016-Sep-23 02:32N 35°15' E 119°40'192 8.8
2016-Sep-22 04:33N 37°14' E 122°48'1310.9
2016-Sep-22 03:20N 37°27' E 122°46'11911.0
2016-Sep-21 16:33N 38°35' E 120°42'13910.6
2016-Sep-21 03:29N 38°58' E 117°46'0 0.0
2016-Sep-21 02:29N 38°58' E 117°46'0 0.0
2016-Sep-20 17:29N 38°58' E 117°46'0 0.0
2016-Sep-20 14:23N 38°58' E 117°46'0 0.0
2016-Sep-20 13:29N 38°58' E 117°46'0 0.0
2016-Sep-20 10:29N 38°58' E 117°46'0 0.0
2016-Sep-20 08:29N 38°58' E 117°46'0 0.0
2016-Sep-20 07:23N 38°58' E 117°46'0 0.0
2016-Sep-20 06:29N 38°58' E 117°46'0 0.0
2016-Sep-20 02:32N 38°58' E 117°46'7 0.2
2016-Sep-18 01:31N 38°57' E 117°56'6 6.4
2016-Sep-18 00:33N 38°58' E 117°48'1 0.6
2016-Sep-17 22:26N 38°58' E 117°46'0 0.0
2016-Sep-17 21:26N 38°58' E 117°46'0 0.0
2016-Sep-17 20:26N 38°58' E 117°46'0 0.0
2016-Sep-17 19:14N 38°58' E 117°46'0 0.0
2016-Sep-17 13:20N 38°58' E 117°46'0 0.0
2016-Sep-17 12:32N 38°58' E 117°46'2 1.1
2016-Sep-17 10:33N 38°58' E 117°49'  
Track history (hours):
 
Tides and Currents Weather Stations Pressure Air Temp Water Temp Dewpoint Dewpoint Depression Visibility Wind Speed Wind Dir Waves Ship Positions

Cmb Sakura

Last reported at 2016-Sep-23 16:30 UTC. Time now 2016-Sep-27 12:10 UTC.
Position N 35°21' E 119°32'.

Length 225 m; draft 8.1 m.

Type: Cargo ship. MMSI: 371784000.

Date/timePositionNaut miles runAvg speedWind from/ knotsBaromVisibWave heightAir tempDewpointWater temp
2016-Sep-23 16:30N 35°21' E 119°32'0 0.0
2016-Sep-23 15:18N 35°21' E 119°32'0 0.0
2016-Sep-23 13:24N 35°21' E 119°32'7 1.8
2016-Sep-23 09:33N 35°18' E 119°39'4 0.7
2016-Sep-23 04:32N 35°15' E 119°41'0 0.1
2016-Sep-23 03:32N 35°15' E 119°41'0 0.0
2016-Sep-23 02:32N 35°15' E 119°40'192 8.8
2016-Sep-22 04:33N 37°14' E 122°48'1310.9
2016-Sep-22 03:20N 37°27' E 122°46'11911.0
2016-Sep-21 16:33N 38°35' E 120°42'13910.6
2016-Sep-21 03:29N 38°58' E 117°46'0 0.0
2016-Sep-21 02:29N 38°58' E 117°46'0 0.0
2016-Sep-20 17:29N 38°58' E 117°46'0 0.0
2016-Sep-20 14:23N 38°58' E 117°46'0 0.0
2016-Sep-20 13:29N 38°58' E 117°46'0 0.0
2016-Sep-20 10:29N 38°58' E 117°46'0 0.0
2016-Sep-20 08:29N 38°58' E 117°46'0 0.0
2016-Sep-20 07:23N 38°58' E 117°46'0 0.0
2016-Sep-20 06:29N 38°58' E 117°46'0 0.0
2016-Sep-20 02:32N 38°58' E 117°46'7 0.2
2016-Sep-18 01:31N 38°57' E 117°56'6 6.4
2016-Sep-18 00:33N 38°58' E 117°48'1 0.6
2016-Sep-17 22:26N 38°58' E 117°46'0 0.0
2016-Sep-17 21:26N 38°58' E 117°46'0 0.0
2016-Sep-17 20:26N 38°58' E 117°46'0 0.0
2016-Sep-17 19:14N 38°58' E 117°46'0 0.0
2016-Sep-17 13:20N 38°58' E 117°46'0 0.0
2016-Sep-17 12:32N 38°58' E 117°46'2 1.1
2016-Sep-17 10:33N 38°58' E 117°49'  

Dump ship's entire track history